Terminal Aerodrome Forecast
Issued by NWS Sioux Falls, SD

Home | Current Version | Previous Version | Graphics & Text | Print | Product List | Glossary Off
Versions: 1 2 3 4 5 6 7 8 9 10 11 12 13 14 15 16 17 18 19 20 21 22 23 24 25 26 27

000
FTUS43 KFSD 150520
TAFHON
TAF
KHON 150520Z 1506/1606 34010KT 6SM BR OVC008
     FM150900 35015G23KT 3SM -FZRA BR OVC005
     FM151100 35016G26KT 3SM -FZRAPL BR OVC009
     FM151700 35022G32KT 2SM -SN BR OVC010
     FM160000 34020G28KT P6SM BKN020=

USA.gov is the U.S. government's official web portal to all federal, state and local government web resources and services.